createdAt,value
2022-11-21T00:05:01.878Z,91.13
2022-11-21T00:10:06.731Z,93.47
2022-11-21T00:15:10.349Z,91.18
2022-11-21T00:20:15.299Z,90.87
2022-11-21T00:25:19.494Z,90.63
2022-11-21T00:30:22.582Z,90.67
2022-11-21T00:35:25.411Z,91.86
2022-11-21T00:40:29.316Z,90.54
2022-11-21T00:45:31.969Z,90.25
2022-11-21T00:50:34.547Z,89.04
2022-11-21T00:55:38.477Z,89.81
2022-11-21T01:00:41.172Z,89.23
2022-11-21T01:05:44.139Z,89.68
2022-11-21T01:10:48.093Z,89.84
2022-11-21T01:15:50.666Z,90.13
2022-11-21T01:20:53.242Z,90.82
2022-11-21T01:26:02.197Z,90.77
2022-11-21T01:31:07.347Z,90.60
2022-11-21T01:36:12.878Z,89.97
2022-11-21T01:41:20.216Z,90.28
2022-11-21T01:46:24.492Z,89.75
2022-11-21T01:51:38.709Z,90.15
2022-11-21T01:56:50.610Z,89.98
2022-11-21T02:01:56.511Z,89.87
2022-11-21T02:07:00.316Z,90.73
2022-11-21T02:12:12.646Z,89.88
2022-11-21T02:17:15.210Z,91.38
2022-11-21T02:22:26.333Z,92.30
2022-11-21T02:27:30.643Z,91.90
2022-11-21T02:32:35.868Z,91.66
2022-11-21T02:37:40.872Z,92.47
2022-11-21T02:42:52.797Z,92.44
2022-11-21T02:48:00.830Z,94.13
2022-11-21T02:53:08.518Z,94.11
2022-11-21T02:58:13.338Z,94.55
2022-11-21T03:03:18.637Z,95.30
2022-11-21T03:08:21.198Z,96.74
2022-11-21T03:13:25.161Z,98.45
2022-11-21T03:18:27.777Z,97.56
2022-11-21T03:23:30.311Z,99.16
2022-11-21T03:28:34.258Z,99.80
2022-11-21T03:33:36.836Z,99.74
2022-11-21T03:38:40.730Z,100.00
2022-11-21T03:43:44.654Z,100.00
2022-11-21T03:48:47.178Z,100.00
2022-11-21T03:53:50.021Z,99.60
2022-11-21T03:58:54.142Z,100.00
2022-11-21T04:03:57.053Z,100.00
2022-11-21T04:08:59.685Z,100.00
2022-11-21T04:14:03.684Z,100.00
2022-11-21T04:19:06.249Z,100.00
2022-11-21T04:24:09.337Z,100.00
2022-11-21T04:29:13.228Z,100.00
2022-11-21T04:34:15.948Z,100.00
2022-11-21T04:39:19.640Z,100.00
2022-11-21T04:44:23.553Z,100.00
2022-11-21T04:49:26.120Z,100.00
2022-11-21T04:54:29.186Z,99.62
2022-11-21T04:59:33.463Z,100.00
2022-11-21T05:04:36.030Z,100.00
2022-11-21T05:09:38.618Z,100.00
2022-11-21T05:14:42.511Z,100.00
2022-11-21T05:19:45.327Z,100.00
2022-11-21T05:24:47.982Z,99.54
2022-11-21T05:29:52.062Z,97.73
2022-11-21T05:34:54.653Z,97.69
2022-11-21T05:39:57.196Z,98.13
2022-11-21T05:45:01.198Z,97.04
2022-11-21T05:50:07.441Z,98.41
2022-11-21T05:55:10.361Z,98.12
2022-11-21T06:00:15.787Z,96.52
2022-11-21T06:05:18.343Z,95.64
2022-11-21T06:10:23.087Z,96.82
2022-11-21T06:15:27.123Z,97.85
2022-11-21T06:20:29.748Z,97.38
2022-11-21T06:25:32.338Z,96.64
2022-11-21T06:30:36.330Z,99.35
2022-11-21T06:35:40.160Z,98.10
2022-11-21T06:40:42.732Z,99.35
2022-11-21T06:45:46.677Z,99.56
2022-11-21T06:50:49.415Z,97.38
2022-11-21T06:55:52.037Z,97.25
2022-11-21T07:00:56.251Z,94.45
2022-11-21T07:06:01.743Z,94.20
2022-11-21T07:16:32.456Z,93.48
2022-11-21T07:21:35.295Z,94.50
2022-11-21T07:26:37.840Z,93.67
2022-11-21T07:31:41.702Z,94.45
2022-11-21T07:36:44.309Z,94.51
2022-11-21T07:41:46.914Z,93.19
2022-11-21T07:46:50.851Z,93.23
2022-11-21T07:51:53.629Z,91.98
2022-11-21T07:56:56.448Z,91.25
2022-11-21T08:02:00.509Z,92.04
2022-11-21T08:07:06.200Z,91.83
2022-11-21T08:12:10.481Z,94.40
2022-11-21T08:17:14.922Z,90.83
2022-11-21T08:22:18.572Z,91.82
2022-11-21T08:27:21.625Z,88.85
2022-11-21T08:32:25.773Z,88.88
2022-11-21T08:37:29.050Z,88.35
2022-11-21T08:42:31.787Z,87.20
2022-11-21T08:47:37.783Z,87.32
2022-11-21T08:52:40.459Z,85.91
2022-11-21T08:57:43.811Z,86.60
2022-11-21T09:02:50.757Z,86.41
2022-11-21T09:07:58.281Z,86.74
2022-11-21T09:13:01.221Z,87.09
2022-11-21T09:18:07.585Z,89.14
2022-11-21T09:23:12.116Z,88.50
2022-11-21T09:28:16.758Z,89.18
2022-11-21T09:33:20.702Z,88.30
2022-11-21T09:38:24.391Z,87.63
2022-11-21T09:43:43.621Z,86.06
2022-11-21T09:48:56.059Z,88.22
2022-11-21T09:54:03.213Z,90.62
2022-11-21T09:59:20.917Z,85.43
2022-11-21T10:04:25.079Z,84.29
2022-11-21T10:09:42.667Z,88.38
2022-11-21T10:14:57.243Z,85.42
2022-11-21T10:20:24.682Z,84.24
2022-11-21T10:25:31.104Z,82.56
2022-11-21T10:30:35.014Z,83.25
2022-11-21T10:35:43.388Z,87.70
2022-11-21T10:40:48.494Z,87.99
2022-11-21T10:45:51.868Z,88.32
2022-11-21T10:51:18.943Z,87.18
2022-11-21T10:56:23.800Z,91.78
2022-11-21T11:01:29.851Z,88.98
2022-11-21T11:06:33.948Z,91.61
2022-11-21T11:11:36.543Z,94.97
2022-11-21T11:16:46.115Z,92.08
2022-11-21T11:21:50.750Z,88.83
2022-11-21T11:26:58.619Z,92.48
2022-11-21T11:32:04.274Z,91.17
2022-11-21T11:37:16.798Z,90.70
2022-11-21T11:43:05.345Z,89.65
2022-11-21T11:48:11.285Z,92.34
2022-11-21T11:53:19.513Z,95.14
2022-11-21T11:58:27.916Z,96.55
2022-11-21T12:03:40.721Z,97.19
2022-11-21T12:08:53.566Z,95.69
2022-11-21T12:13:57.374Z,91.91
2022-11-21T12:19:06.392Z,94.55
2022-11-21T12:24:12.669Z,98.06
2022-11-21T12:29:28.065Z,100.00
2022-11-21T12:34:45.554Z,100.00
2022-11-21T12:40:21.030Z,99.30
2022-11-21T12:45:34.384Z,98.88
2022-11-21T12:51:07.105Z,100.00
2022-11-21T12:56:19.774Z,100.00
2022-11-21T13:01:32.602Z,100.00
2022-11-21T13:06:40.757Z,100.00
2022-11-21T13:12:00.435Z,100.00
2022-11-21T13:17:15.890Z,100.00
2022-11-21T13:22:50.654Z,100.00
2022-11-21T13:27:55.317Z,100.00
2022-11-21T13:32:59.155Z,100.00
2022-11-21T13:38:12.518Z,100.00
2022-11-21T13:43:33.269Z,100.00
2022-11-21T13:49:05.725Z,100.00
2022-11-21T13:54:28.641Z,100.00
2022-11-21T13:59:53.183Z,100.00
2022-11-21T14:05:14.676Z,100.00
2022-11-21T14:10:33.821Z,100.00
2022-11-21T14:15:48.735Z,100.00
2022-11-21T14:20:56.475Z,98.10
2022-11-21T14:26:03.058Z,99.47
2022-11-21T14:31:08.287Z,99.66
2022-11-21T14:36:15.308Z,97.99
2022-11-21T14:41:27.928Z,92.99
2022-11-21T14:46:33.301Z,96.35
2022-11-21T14:51:37.609Z,92.98
2022-11-21T14:56:42.647Z,93.11
2022-11-21T15:01:56.900Z,95.79
2022-11-21T15:06:59.843Z,92.14
2022-11-21T15:12:06.110Z,91.04
2022-11-21T15:17:14.828Z,89.38
2022-11-21T15:22:28.278Z,94.39
2022-11-21T15:27:33.801Z,97.58
2022-11-21T15:33:08.488Z,97.49
2022-11-21T15:38:23.770Z,99.13
2022-11-21T15:43:43.125Z,95.73
2022-11-21T15:48:48.653Z,92.84
2022-11-21T15:53:55.554Z,98.73
2022-11-21T15:59:07.707Z,95.56
2022-11-21T16:04:13.324Z,95.74
2022-11-21T16:09:15.888Z,94.92
2022-11-21T16:14:19.149Z,95.13
2022-11-21T16:19:23.160Z,97.73
2022-11-21T16:24:25.932Z,93.70
2022-11-21T16:29:28.700Z,95.17
2022-11-21T16:34:33.092Z,96.04
2022-11-21T16:39:35.970Z,95.92
2022-11-21T16:44:38.701Z,93.50
2022-11-21T16:49:48.504Z,91.07
2022-11-21T16:54:51.419Z,90.00
2022-11-21T16:59:55.969Z,90.52
2022-11-21T17:05:01.534Z,92.06
2022-11-21T17:10:04.991Z,98.08
2022-11-21T17:15:09.843Z,93.94
2022-11-21T17:20:14.483Z,93.00
2022-11-21T17:25:19.675Z,91.53
2022-11-21T17:30:23.278Z,91.41
2022-11-21T17:35:27.943Z,93.14
2022-11-21T17:40:30.522Z,95.43
2022-11-21T17:45:36.745Z,95.41
2022-11-21T17:50:40.930Z,93.44
2022-11-21T17:55:43.518Z,92.66
2022-11-21T18:00:46.108Z,95.82
2022-11-21T18:05:51.887Z,92.96
2022-11-21T18:10:54.737Z,91.37
2022-11-21T18:16:00.437Z,90.95
2022-11-21T18:21:06.692Z,98.57
2022-11-21T18:26:13.532Z,99.09
2022-11-21T18:31:18.027Z,95.55
2022-11-21T18:36:22.559Z,93.95
2022-11-21T18:41:26.998Z,94.33
2022-11-21T18:46:30.394Z,96.77
2022-11-21T18:51:35.100Z,94.62
2022-11-21T18:56:38.999Z,94.17
2022-11-21T19:01:41.829Z,94.70
2022-11-21T19:06:45.992Z,93.60
2022-11-21T19:11:48.849Z,92.47
2022-11-21T19:16:51.443Z,92.81
2022-11-21T19:21:57.025Z,92.85
2022-11-21T19:26:59.594Z,92.14
2022-11-21T19:32:02.337Z,92.65
2022-11-21T19:37:06.268Z,92.82
2022-11-21T19:42:13.593Z,93.49
2022-11-21T19:47:16.178Z,96.06
2022-11-21T19:52:24.909Z,97.61
2022-11-21T19:57:30.507Z,95.05
2022-11-21T20:02:33.026Z,93.44
2022-11-21T20:07:37.054Z,94.84
2022-11-21T20:12:39.634Z,97.02
2022-11-21T20:17:50.187Z,94.38
2022-11-21T20:22:54.118Z,93.13
2022-11-21T20:27:56.701Z,94.09
2022-11-21T20:32:59.244Z,99.53
2022-11-21T20:38:03.229Z,99.98
2022-11-21T20:43:05.913Z,96.82
2022-11-21T20:48:11.847Z,94.25
2022-11-21T20:58:42.293Z,92.90
2022-11-21T21:03:44.868Z,96.28
2022-11-21T21:08:49.256Z,95.44
2022-11-21T21:13:52.612Z,96.12
2022-11-21T21:18:56.563Z,96.78
2022-11-21T21:24:02.027Z,96.63
2022-11-21T21:29:05.401Z,100.00
2022-11-21T21:34:09.672Z,95.68
2022-11-21T21:39:14.114Z,93.90
2022-11-21T21:44:17.225Z,92.13
2022-11-21T21:49:19.980Z,90.64
2022-11-21T21:54:27.494Z,90.66
2022-11-21T21:59:30.505Z,92.18
2022-11-21T22:04:33.882Z,92.52
2022-11-21T22:09:38.112Z,96.17
2022-11-21T22:14:40.866Z,96.70
2022-11-21T22:19:52.640Z,95.73
2022-11-21T22:24:56.620Z,94.23
2022-11-21T22:29:59.203Z,93.31
2022-11-21T22:35:01.783Z,93.39
2022-11-21T22:40:06.784Z,93.41
2022-11-21T22:45:10.683Z,94.04
2022-11-21T22:50:13.667Z,94.00
2022-11-21T22:55:18.032Z,92.74
2022-11-21T23:00:20.877Z,92.83
2022-11-21T23:05:23.474Z,92.30
2022-11-21T23:10:27.705Z,92.79
2022-11-21T23:15:30.292Z,93.63
2022-11-21T23:20:32.938Z,91.88
2022-11-21T23:25:36.968Z,94.03
2022-11-21T23:30:39.560Z,94.94
2022-11-21T23:35:43.529Z,92.77
2022-11-21T23:40:48.596Z,91.39
2022-11-21T23:45:52.407Z,92.02
2022-11-21T23:50:57.911Z,93.23
2022-11-21T23:56:01.863Z,92.57
